Independence, Virginia
Current Conditions -  °F | °C
As of 2:35 AM on Wednesday 22 Oct 2014 (Local Time) from KGEV Reporting Station
Scattered Clouds Scattered Clouds  
Wind Chill: 32°   Ceiling: Unl
Heat Index: 41°   Visibility: 10mi
Dew Point: 33°   Wind: 21mph
Humidity: 73%   Direction: 310°NW
Pressure: 29.98"   Gusts: 29mph
Location:  36.62°N, 81.15°W
Report Text: KGEV 220635Z AUTO 31018G25KT 10SM SCT019 05/01 A2998 RMK AO2 T00520007
Loading
Personal Weather Stations






























Interactive Weather Map
Tropical Storm Tracking
New forecast layout! Learn more

10-Day Weather Forecast

Advertisements
Track Severe Weather on mobile